Kumasi Airport

DGSI · Ashanti, Ghana

METAR history DGSI · Kumasi Airport

Below you see METARs of the last few days. Select a year to browse through older METARs, from the year 2007 onwards.

November 27, 2022

Time Code Weather Temp. Visibility Ceiling Wind METAR/SPECI
14:00
V
31 °C 10 km+ - 200° 200° 10 kt METAR DXXX 271400Z 20010KT 160V230 9999 FEW015 FEW020TCU 31/24 Q1007 NOSIG
13:00
V
31 °C 10 km+ - 190° 190° 10 kt METAR DXXX 271300Z 19010KT 150V210 9999 FEW015 31/25 Q1007 NOSIG
11:00
V
31 °C 10 km+ - 210° 210° 9 kt METAR DXXX 271100Z 21009KT 170V240 9999 FEW015 31/25 Q1010 NOSIG
10:00
V
31 °C 10 km+ - 240° 240° 7 - 19 kt METAR DXXX 271000Z 24007G19KT 180V290 9999 SCT015 31/25 Q1010 NOSIG
09:00
V
29 °C 10 km+ - 250° 250° 7 kt METAR DXXX 270900Z 25007KT 210V290 9999 SCT013 29/25 Q1011 NOSIG
08:00
V
28 °C 10 km+ - 270° 270° 7 kt METAR DXXX 270800Z 27007KT 230V290 9999 FEW013 28/25 Q1011 NOSIG
07:00
V
27 °C 8 km - 250° 250° 5 kt METAR DXXX 270700Z 25005KT 8000 FEW011 27/25 Q1010 NOSIG
06:00
V
26 °C 8 km - 250° 250° 5 kt METAR DXXX 270600Z 25005KT 8000 FEW011 26/25 Q1010 NOSIG
05:00
V
26 °C 10 km+ - 270° 270° 4 kt METAR DXXX 270500Z 27004KT 9999 FEW011 26/25 Q1010 NOSIG
04:00
V
26 °C 10 km+ - Var Var 3 kt METAR DXXX 270400Z VRB03KT 9999 FEW011 26/25 Q1010 NOSIG
03:00
V
26 °C 10 km+ - 250° 250° 5 kt METAR DXXX 270300Z 25005KT 9999 FEW011 26/25 Q1009 NOSIG
02:00
V
27 °C 10 km+ - 240° 240° 5 kt METAR DXXX 270200Z 24005KT 9999 FEW012 27/25 Q1010 NOSIG
01:00
V
27 °C 10 km+ - 250° 250° 6 kt METAR DXXX 270100Z 25006KT 9999 FEW012 27/25 Q1010 NOSIG
00:00
V
27 °C 10 km+ - 260° 260° 6 kt METAR DXXX 270000Z 26006KT 9999 FEW012 27/25 Q1011 NOSIG

November 26, 2022

Time Code Weather Temp. Visibility Ceiling Wind METAR/SPECI
23:00
V
27 °C 10 km+ - 220° 220° 8 kt METAR DXXX 262300Z 22008KT 9999 FEW012 27/25 Q1011 NOSIG
22:00
V
27 °C 10 km+ - 220° 220° 8 kt METAR DXXX 262200Z 22008KT 9999 FEW012 27/25 Q1011 NOSIG
21:00
V
28 °C 10 km+ - 220° 220° 8 kt METAR DXXX 262100Z 22008KT 9999 FEW013 28/25 Q1011 NOSIG
20:00
V
28 °C 10 km+ - 210° 210° 10 kt METAR DXXX 262000Z 21010KT 9999 FEW013 28/25 Q1011 NOSIG
19:00
V
28 °C 10 km+ - 220° 220° 9 kt METAR DXXX 261900Z 22009KT 9999 FEW013 28/25 Q1011 NOSIG
18:00
V
28 °C 10 km+ - 210° 210° 10 kt METAR DXXX 261800Z 21010KT 9999 FEW013 FEW020CB 28/25 Q1010 NOSIG
17:00
V
29 °C 10 km+ - 210° 210° 12 kt METAR DXXX 261700Z 21012KT 9999 FEW013 FEW020CB 29/25 Q1009 NOSIG
16:00
V
30 °C 10 km+ - 210° 210° 13 kt METAR DXXX 261600Z 21013KT 180V240 9999 FEW015 FEW020CB 30/25 Q1009 NOSIG
15:00
V
30 °C 10 km+ - 200° 200° 13 kt METAR DXXX 261500Z 20013KT 9999 FEW015 FEW020CB 30/25 Q1009 NOSIG
14:00
V
31 °C 10 km+ - 200° 200° 11 kt METAR DXXX 261400Z 20011KT 170V230 9999 FEW015 31/25 Q1009 NOSIG
13:00
V
31 °C 10 km+ - 190° 190° 11 kt METAR DXXX 261300Z 19011KT 160V220 9999 FEW015 31/25 Q1010 NOSIG
12:00
V
31 °C 10 km+ - 190° 190° 9 kt METAR DXXX 261200Z 19009KT 160V220 9999 FEW015 31/25 Q1011 NOSIG
11:00
V
31 °C 10 km+ - 190° 190° 9 kt METAR DXXX 261100Z 19009KT 9999 FEW015 31/25 Q1011 NOSIG
10:00
V
30 °C 10 km+ - 230° 230° 6 kt METAR DXXX 261000Z 23006KT 9999 SCT014 30/24 Q1012 NOSIG
09:00
V
30 °C 10 km+ - 250° 250° 9 kt METAR DXXX 260900Z 25009KT 210V270 9999 SCT014 30/25 Q1012 NOSIG
08:00
V
28 °C 10 km+ - 250° 250° 6 kt METAR DXXX 260800Z 25006KT 210V280 9999 FEW012 28/25 Q1012 NOSIG
07:00
V
27 °C 8 km - 260° 260° 6 kt METAR DXXX 260700Z 26006KT 8000 FEW011 27/25 Q1011 NOSIG
06:00
V
26 °C 10 km+ - 270° 270° 5 kt METAR DXXX 260600Z 27005KT 9999 FEW011 26/24 Q1011 NOSIG
05:00
V
26 °C 10 km+ - 260° 260° 5 kt METAR DXXX 260500Z 26005KT 9999 FEW011 26/25 Q1010 NOSIG
04:00
V
27 °C 10 km+ - 270° 270° 5 kt METAR DXXX 260400Z 27005KT 9999 SCT011 27/25 Q1010 NOSIG
03:00
V
27 °C 10 km+ - 250° 250° 5 kt METAR DXXX 260300Z 25005KT 9999 SCT011 27/25 Q1010 NOSIG
02:00
V
27 °C 10 km+ - 220° 220° 6 kt METAR DXXX 260200Z 22006KT 9999 SCT011 27/25 Q1010 NOSIG
01:00
V
27 °C 10 km+ - 220° 220° 8 kt METAR DXXX 260100Z 22008KT 9999 FEW011 27/25 Q1011 NOSIG
00:00
V
27 °C 10 km+ - 230° 230° 8 kt METAR DXXX 260000Z 23008KT 9999 FEW011 27/25 Q1011 NOSIG

November 25, 2022

Time Code Weather Temp. Visibility Ceiling Wind METAR/SPECI
23:00
V
27 °C 10 km+ - 210° 210° 8 kt METAR DXXX 252300Z 21008KT 9999 FEW011 27/25 Q1012 NOSIG
22:00
V
28 °C 10 km+ - 220° 220° 9 kt METAR DXXX 252200Z 22009KT 9999 SCT011 28/25 Q1012 NOSIG
21:00
V
28 °C 10 km+ - 220° 220° 9 kt METAR DXXX 252100Z 22009KT 9999 SCT011 28/25 Q1012 NOSIG
20:00
V
28 °C 10 km+ - 210° 210° 8 kt METAR DXXX 252000Z 21008KT 9999 FEW012 28/25 Q1011 NOSIG
19:00
V
28 °C 10 km+ - 200° 200° 9 kt METAR DXXX 251900Z 20009KT 160V220 9999 FEW013 28/25 Q1011 NOSIG
18:00
V
28 °C 10 km+ - 200° 200° 9 kt METAR DXXX 251800Z 20009KT 9999 FEW014 28/25 Q1010 NOSIG
17:00
V
29 °C 10 km+ - 200° 200° 12 kt METAR DXXX 251700Z 20012KT 9999 FEW014 29/25 Q1009 NOSIG
16:00
V
30 °C 10 km+ - 200° 200° 11 kt METAR DXXX 251600Z 20011KT 9999 FEW015 30/25 Q1008 NOSIG
15:00
V
31 °C 10 km+ - 200° 200° 12 kt METAR DXXX 251500Z 20012KT 160V220 9999 FEW015 31/25 Q1008 NOSIG
14:00
V
31 °C 10 km+ - 200° 200° 10 kt METAR DXXX 251400Z 20010KT 170V230 9999 FEW014 31/26 Q1009 NOSIG
13:00
V
31 °C 10 km+ - 190° 190° 9 kt METAR DXXX 251300Z 19009KT 150V220 9999 FEW014 31/25 Q1010 NOSIG
11:00
V
31 °C 10 km+ - 320° 320° 4 kt METAR DXXX 251100Z 32004KT 260V360 9999 SCT014 31/24 Q1011 NOSIG
10:00
V
31 °C 10 km+ - 280° 280° 4 kt METAR DXXX 251000Z 28004KT 250V310 9999 SCT014 31/24 Q1012 NOSIG

We and third parties follow your internet behavior on our website with cookies. If you continue, we assume you agree with our cookie policy.